sensor_id;sensor_type;location;lat;lon;timestamp;P1;durP1;ratioP1;P2;durP2;ratioP2
32295;SDS011;18781;51.550;5.418;2023-04-24T00:00:02;15.40;;;8.68;;
32295;SDS011;18781;51.550;5.418;2023-04-24T00:02:33;11.35;;;8.98;;
32295;SDS011;18781;51.550;5.418;2023-04-24T00:04:59;15.93;;;9.98;;
32295;SDS011;18781;51.550;5.418;2023-04-24T00:07:28;16.23;;;10.40;;
32295;SDS011;18781;51.550;5.418;2023-04-24T00:09:54;15.38;;;10.52;;
32295;SDS011;18781;51.550;5.418;2023-04-24T00:12:20;15.82;;;11.05;;
32295;SDS011;18781;51.550;5.418;2023-04-24T00:14:45;16.83;;;10.75;;
32295;SDS011;18781;51.550;5.418;2023-04-24T00:17:11;19.58;;;11.82;;
32295;SDS011;18781;51.550;5.418;2023-04-24T00:19:37;17.77;;;11.80;;
32295;SDS011;18781;51.550;5.418;2023-04-24T00:22:02;17.88;;;11.82;;
32295;SDS011;18781;51.550;5.418;2023-04-24T00:24:28;20.73;;;12.93;;
32295;SDS011;18781;51.550;5.418;2023-04-24T00:26:54;21.10;;;12.60;;
32295;SDS011;18781;51.550;5.418;2023-04-24T00:29:19;22.05;;;12.45;;
32295;SDS011;18781;51.550;5.418;2023-04-24T00:31:45;24.95;;;13.90;;
32295;SDS011;18781;51.550;5.418;2023-04-24T00:34:10;19.83;;;13.55;;
32295;SDS011;18781;51.550;5.418;2023-04-24T00:36:37;28.52;;;14.27;;
32295;SDS011;18781;51.550;5.418;2023-04-24T00:39:03;24.15;;;14.50;;
32295;SDS011;18781;51.550;5.418;2023-04-24T00:41:28;19.60;;;14.52;;
32295;SDS011;18781;51.550;5.418;2023-04-24T00:43:55;26.65;;;15.35;;
32295;SDS011;18781;51.550;5.418;2023-04-24T00:46:21;26.27;;;14.80;;
32295;SDS011;18781;51.550;5.418;2023-04-24T00:48:47;29.45;;;15.82;;
32295;SDS011;18781;51.550;5.418;2023-04-24T00:51:12;24.70;;;15.57;;
32295;SDS011;18781;51.550;5.418;2023-04-24T00:53:38;31.25;;;16.42;;
32295;SDS011;18781;51.550;5.418;2023-04-24T00:56:04;21.20;;;15.80;;
32295;SDS011;18781;51.550;5.418;2023-04-24T00:58:30;23.13;;;15.25;;
32295;SDS011;18781;51.550;5.418;2023-04-24T01:00:56;27.85;;;15.95;;
32295;SDS011;18781;51.550;5.418;2023-04-24T01:03:23;26.40;;;16.30;;
32295;SDS011;18781;51.550;5.418;2023-04-24T01:05:51;28.08;;;17.25;;
32295;SDS011;18781;51.550;5.418;2023-04-24T01:08:17;25.55;;;16.80;;
32295;SDS011;18781;51.550;5.418;2023-04-24T01:10:44;30.58;;;17.10;;
32295;SDS011;18781;51.550;5.418;2023-04-24T01:13:13;33.10;;;17.38;;
32295;SDS011;18781;51.550;5.418;2023-04-24T01:15:39;29.90;;;16.35;;
32295;SDS011;18781;51.550;5.418;2023-04-24T01:18:04;30.88;;;17.83;;
32295;SDS011;18781;51.550;5.418;2023-04-24T01:20:30;33.10;;;17.63;;
32295;SDS011;18781;51.550;5.418;2023-04-24T01:22:57;29.67;;;16.90;;
32295;SDS011;18781;51.550;5.418;2023-04-24T01:25:23;27.23;;;17.42;;
32295;SDS011;18781;51.550;5.418;2023-04-24T01:27:50;31.65;;;16.92;;
32295;SDS011;18781;51.550;5.418;2023-04-24T01:30:17;26.05;;;16.35;;
32295;SDS011;18781;51.550;5.418;2023-04-24T01:32:43;25.85;;;17.08;;
32295;SDS011;18781;51.550;5.418;2023-04-24T01:35:10;27.25;;;17.60;;
32295;SDS011;18781;51.550;5.418;2023-04-24T01:37:36;28.58;;;18.42;;
32295;SDS011;18781;51.550;5.418;2023-04-24T01:40:05;29.42;;;19.90;;
32295;SDS011;18781;51.550;5.418;2023-04-24T01:42:31;24.85;;;18.98;;
32295;SDS011;18781;51.550;5.418;2023-04-24T01:44:57;34.88;;;19.30;;
32295;SDS011;18781;51.550;5.418;2023-04-24T01:47:24;30.02;;;20.00;;
32295;SDS011;18781;51.550;5.418;2023-04-24T01:49:50;31.90;;;20.83;;
32295;SDS011;18781;51.550;5.418;2023-04-24T01:52:15;33.65;;;21.70;;
32295;SDS011;18781;51.550;5.418;2023-04-24T01:54:42;35.55;;;22.75;;
32295;SDS011;18781;51.550;5.418;2023-04-24T01:57:08;35.58;;;23.08;;
32295;SDS011;18781;51.550;5.418;2023-04-24T01:59:34;36.88;;;22.75;;
32295;SDS011;18781;51.550;5.418;2023-04-24T02:02:01;40.45;;;24.23;;
32295;SDS011;18781;51.550;5.418;2023-04-24T02:04:27;37.38;;;23.08;;
32295;SDS011;18781;51.550;5.418;2023-04-24T02:06:53;39.92;;;23.50;;
32295;SDS011;18781;51.550;5.418;2023-04-24T02:09:18;40.97;;;24.00;;
32295;SDS011;18781;51.550;5.418;2023-04-24T02:11:44;36.85;;;23.27;;
32295;SDS011;18781;51.550;5.418;2023-04-24T02:14:10;36.15;;;23.92;;
32295;SDS011;18781;51.550;5.418;2023-04-24T02:16:35;33.55;;;23.35;;
32295;SDS011;18781;51.550;5.418;2023-04-24T02:19:01;35.38;;;23.23;;
32295;SDS011;18781;51.550;5.418;2023-04-24T02:21:27;37.05;;;22.63;;
32295;SDS011;18781;51.550;5.418;2023-04-24T02:23:53;33.53;;;22.95;;
32295;SDS011;18781;51.550;5.418;2023-04-24T02:26:19;32.53;;;22.55;;
32295;SDS011;18781;51.550;5.418;2023-04-24T02:28:45;33.35;;;22.00;;
32295;SDS011;18781;51.550;5.418;2023-04-24T02:31:10;40.33;;;23.45;;
32295;SDS011;18781;51.550;5.418;2023-04-24T02:33:36;31.95;;;20.95;;
32295;SDS011;18781;51.550;5.418;2023-04-24T02:36:02;31.80;;;19.52;;
32295;SDS011;18781;51.550;5.418;2023-04-24T02:38:28;34.78;;;22.30;;
32295;SDS011;18781;51.550;5.418;2023-04-24T02:40:54;31.08;;;21.80;;
32295;SDS011;18781;51.550;5.418;2023-04-24T02:43:19;28.70;;;21.23;;
32295;SDS011;18781;51.550;5.418;2023-04-24T02:45:45;34.55;;;21.83;;
32295;SDS011;18781;51.550;5.418;2023-04-24T02:48:11;33.15;;;21.50;;
32295;SDS011;18781;51.550;5.418;2023-04-24T02:50:36;37.13;;;22.95;;
32295;SDS011;18781;51.550;5.418;2023-04-24T02:53:02;35.58;;;23.05;;
32295;SDS011;18781;51.550;5.418;2023-04-24T02:55:28;33.78;;;22.95;;
32295;SDS011;18781;51.550;5.418;2023-04-24T02:57:53;33.78;;;21.77;;
32295;SDS011;18781;51.550;5.418;2023-04-24T03:00:19;31.98;;;21.02;;
32295;SDS011;18781;51.550;5.418;2023-04-24T03:02:45;38.20;;;23.63;;
32295;SDS011;18781;51.550;5.418;2023-04-24T03:05:10;37.00;;;22.63;;
32295;SDS011;18781;51.550;5.418;2023-04-24T03:07:37;35.30;;;21.92;;
32295;SDS011;18781;51.550;5.418;2023-04-24T03:10:03;31.25;;;21.52;;
32295;SDS011;18781;51.550;5.418;2023-04-24T03:12:30;35.78;;;22.67;;
32295;SDS011;18781;51.550;5.418;2023-04-24T03:14:56;36.45;;;21.83;;
32295;SDS011;18781;51.550;5.418;2023-04-24T03:17:21;33.08;;;22.90;;
32295;SDS011;18781;51.550;5.418;2023-04-24T03:19:47;35.15;;;21.90;;
32295;SDS011;18781;51.550;5.418;2023-04-24T03:22:13;36.33;;;22.05;;
32295;SDS011;18781;51.550;5.418;2023-04-24T03:24:38;35.15;;;21.58;;
32295;SDS011;18781;51.550;5.418;2023-04-24T03:27:04;27.83;;;21.38;;
32295;SDS011;18781;51.550;5.418;2023-04-24T03:29:29;31.58;;;20.65;;
32295;SDS011;18781;51.550;5.418;2023-04-24T03:31:55;31.05;;;20.27;;
32295;SDS011;18781;51.550;5.418;2023-04-24T03:34:20;28.00;;;20.52;;
32295;SDS011;18781;51.550;5.418;2023-04-24T03:36:46;30.55;;;19.17;;
32295;SDS011;18781;51.550;5.418;2023-04-24T03:39:14;26.23;;;18.93;;
32295;SDS011;18781;51.550;5.418;2023-04-24T03:41:40;29.10;;;20.02;;
32295;SDS011;18781;51.550;5.418;2023-04-24T03:44:06;27.58;;;19.00;;
32295;SDS011;18781;51.550;5.418;2023-04-24T03:46:31;28.38;;;18.45;;
32295;SDS011;18781;51.550;5.418;2023-04-24T03:48:57;32.17;;;18.23;;
32295;SDS011;18781;51.550;5.418;2023-04-24T03:51:22;31.05;;;18.52;;
32295;SDS011;18781;51.550;5.418;2023-04-24T03:53:48;30.42;;;17.65;;
32295;SDS011;18781;51.550;5.418;2023-04-24T03:56:14;34.20;;;17.83;;
32295;SDS011;18781;51.550;5.418;2023-04-24T03:58:40;26.40;;;17.10;;
32295;SDS011;18781;51.550;5.418;2023-04-24T04:01:05;31.38;;;17.60;;
32295;SDS011;18781;51.550;5.418;2023-04-24T04:03:31;28.77;;;17.38;;
32295;SDS011;18781;51.550;5.418;2023-04-24T04:05:57;33.60;;;17.23;;
32295;SDS011;18781;51.550;5.418;2023-04-24T04:08:22;25.48;;;16.75;;
32295;SDS011;18781;51.550;5.418;2023-04-24T04:10:48;24.73;;;16.38;;
32295;SDS011;18781;51.550;5.418;2023-04-24T04:13:14;23.75;;;16.42;;
32295;SDS011;18781;51.550;5.418;2023-04-24T04:15:40;25.63;;;16.30;;
32295;SDS011;18781;51.550;5.418;2023-04-24T04:18:06;26.02;;;16.42;;
32295;SDS011;18781;51.550;5.418;2023-04-24T04:20:31;24.88;;;16.65;;
32295;SDS011;18781;51.550;5.418;2023-04-24T04:22:57;28.77;;;16.50;;
32295;SDS011;18781;51.550;5.418;2023-04-24T04:25:22;26.90;;;15.80;;
32295;SDS011;18781;51.550;5.418;2023-04-24T04:27:48;30.95;;;16.55;;
32295;SDS011;18781;51.550;5.418;2023-04-24T04:30:14;25.13;;;16.90;;
32295;SDS011;18781;51.550;5.418;2023-04-24T04:32:40;25.40;;;16.38;;
32295;SDS011;18781;51.550;5.418;2023-04-24T04:35:05;24.65;;;17.20;;
32295;SDS011;18781;51.550;5.418;2023-04-24T04:37:34;25.67;;;16.83;;
32295;SDS011;18781;51.550;5.418;2023-04-24T04:40:00;20.95;;;15.77;;
32295;SDS011;18781;51.550;5.418;2023-04-24T04:42:31;20.70;;;15.30;;
32295;SDS011;18781;51.550;5.418;2023-04-24T04:44:57;21.50;;;15.82;;
32295;SDS011;18781;51.550;5.418;2023-04-24T04:47:23;23.25;;;15.27;;
32295;SDS011;18781;51.550;5.418;2023-04-24T04:49:49;21.10;;;15.48;;
32295;SDS011;18781;51.550;5.418;2023-04-24T04:52:16;18.98;;;14.63;;
32295;SDS011;18781;51.550;5.418;2023-04-24T04:54:42;18.92;;;13.57;;
32295;SDS011;18781;51.550;5.418;2023-04-24T04:57:08;18.95;;;13.68;;
32295;SDS011;18781;51.550;5.418;2023-04-24T04:59:34;17.98;;;12.77;;
32295;SDS011;18781;51.550;5.418;2023-04-24T05:01:59;16.73;;;13.40;;
32295;SDS011;18781;51.550;5.418;2023-04-24T05:04:25;18.80;;;12.60;;
32295;SDS011;18781;51.550;5.418;2023-04-24T05:06:51;16.77;;;13.27;;
32295;SDS011;18781;51.550;5.418;2023-04-24T05:09:17;17.80;;;12.30;;
32295;SDS011;18781;51.550;5.418;2023-04-24T05:11:43;15.05;;;12.50;;
32295;SDS011;18781;51.550;5.418;2023-04-24T05:14:08;16.10;;;12.50;;
32295;SDS011;18781;51.550;5.418;2023-04-24T05:16:34;15.70;;;11.32;;
32295;SDS011;18781;51.550;5.418;2023-04-24T05:19:01;17.38;;;12.20;;
32295;SDS011;18781;51.550;5.418;2023-04-24T05:21:27;17.42;;;12.25;;
32295;SDS011;18781;51.550;5.418;2023-04-24T05:23:52;13.60;;;10.80;;
32295;SDS011;18781;51.550;5.418;2023-04-24T05:26:18;13.20;;;11.10;;
32295;SDS011;18781;51.550;5.418;2023-04-24T05:28:44;16.38;;;10.60;;
32295;SDS011;18781;51.550;5.418;2023-04-24T05:31:10;10.18;;;7.82;;
32295;SDS011;18781;51.550;5.418;2023-04-24T05:33:37;8.75;;;6.70;;
32295;SDS011;18781;51.550;5.418;2023-04-24T05:36:02;8.98;;;5.75;;
32295;SDS011;18781;51.550;5.418;2023-04-24T05:38:30;7.88;;;5.05;;
32295;SDS011;18781;51.550;5.418;2023-04-24T05:40:56;6.93;;;4.20;;
32295;SDS011;18781;51.550;5.418;2023-04-24T05:43:21;5.93;;;4.05;;
32295;SDS011;18781;51.550;5.418;2023-04-24T05:45:47;7.95;;;3.95;;
32295;SDS011;18781;51.550;5.418;2023-04-24T05:48:12;8.25;;;3.53;;
32295;SDS011;18781;51.550;5.418;2023-04-24T05:50:38;3.63;;;2.70;;
32295;SDS011;18781;51.550;5.418;2023-04-24T05:53:03;5.15;;;2.40;;
32295;SDS011;18781;51.550;5.418;2023-04-24T05:55:30;3.25;;;2.10;;
32295;SDS011;18781;51.550;5.418;2023-04-24T05:57:56;5.55;;;2.20;;
32295;SDS011;18781;51.550;5.418;2023-04-24T06:00:21;3.15;;;2.28;;
32295;SDS011;18781;51.550;5.418;2023-04-24T06:02:48;4.68;;;2.10;;
32295;SDS011;18781;51.550;5.418;2023-04-24T06:05:14;5.32;;;2.17;;
32295;SDS011;18781;51.550;5.418;2023-04-24T06:07:39;2.60;;;1.77;;
32295;SDS011;18781;51.550;5.418;2023-04-24T06:10:05;3.17;;;2.08;;
32295;SDS011;18781;51.550;5.418;2023-04-24T06:12:31;8.18;;;2.47;;
32295;SDS011;18781;51.550;5.418;2023-04-24T06:14:56;2.25;;;1.88;;
32295;SDS011;18781;51.550;5.418;2023-04-24T06:17:22;2.30;;;1.98;;
32295;SDS011;18781;51.550;5.418;2023-04-24T06:19:48;5.78;;;2.20;;
32295;SDS011;18781;51.550;5.418;2023-04-24T06:22:13;3.15;;;1.95;;
32295;SDS011;18781;51.550;5.418;2023-04-24T06:24:39;6.55;;;2.10;;
32295;SDS011;18781;51.550;5.418;2023-04-24T06:27:05;5.10;;;2.45;;
32295;SDS011;18781;51.550;5.418;2023-04-24T06:29:31;4.68;;;2.58;;
32295;SDS011;18781;51.550;5.418;2023-04-24T06:31:58;3.75;;;2.47;;
32295;SDS011;18781;51.550;5.418;2023-04-24T06:34:23;3.83;;;2.65;;
32295;SDS011;18781;51.550;5.418;2023-04-24T06:36:49;7.82;;;3.50;;
32295;SDS011;18781;51.550;5.418;2023-04-24T06:39:15;5.78;;;3.75;;
32295;SDS011;18781;51.550;5.418;2023-04-24T06:41:41;6.38;;;3.50;;
32295;SDS011;18781;51.550;5.418;2023-04-24T06:44:06;4.82;;;3.72;;
32295;SDS011;18781;51.550;5.418;2023-04-24T06:46:32;5.15;;;3.70;;
32295;SDS011;18781;51.550;5.418;2023-04-24T06:48:58;5.63;;;3.72;;
32295;SDS011;18781;51.550;5.418;2023-04-24T06:51:23;7.40;;;4.95;;
32295;SDS011;18781;51.550;5.418;2023-04-24T06:53:51;7.63;;;5.30;;
32295;SDS011;18781;51.550;5.418;2023-04-24T06:56:17;9.05;;;5.95;;
32295;SDS011;18781;51.550;5.418;2023-04-24T06:58:42;7.20;;;6.07;;
32295;SDS011;18781;51.550;5.418;2023-04-24T07:01:08;13.45;;;7.10;;
32295;SDS011;18781;51.550;5.418;2023-04-24T07:03:34;12.68;;;8.05;;
32295;SDS011;18781;51.550;5.418;2023-04-24T07:06:00;13.60;;;8.20;;
32295;SDS011;18781;51.550;5.418;2023-04-24T07:08:26;15.75;;;9.18;;
32295;SDS011;18781;51.550;5.418;2023-04-24T07:10:51;20.30;;;10.38;;
32295;SDS011;18781;51.550;5.418;2023-04-24T07:13:17;17.30;;;10.75;;
32295;SDS011;18781;51.550;5.418;2023-04-24T07:15:43;20.38;;;10.48;;
32295;SDS011;18781;51.550;5.418;2023-04-24T07:18:08;18.33;;;10.27;;
32295;SDS011;18781;51.550;5.418;2023-04-24T07:20:34;18.50;;;10.15;;
32295;SDS011;18781;51.550;5.418;2023-04-24T07:23:00;18.85;;;10.30;;
32295;SDS011;18781;51.550;5.418;2023-04-24T07:25:25;17.75;;;9.43;;
32295;SDS011;18781;51.550;5.418;2023-04-24T07:27:51;18.52;;;10.23;;
32295;SDS011;18781;51.550;5.418;2023-04-24T07:30:17;17.67;;;10.23;;
32295;SDS011;18781;51.550;5.418;2023-04-24T07:32:43;16.92;;;9.32;;
32295;SDS011;18781;51.550;5.418;2023-04-24T07:35:09;20.08;;;9.80;;
32295;SDS011;18781;51.550;5.418;2023-04-24T07:37:35;16.92;;;9.13;;
32295;SDS011;18781;51.550;5.418;2023-04-24T07:40:00;21.45;;;9.88;;
32295;SDS011;18781;51.550;5.418;2023-04-24T07:42:26;20.30;;;8.95;;
32295;SDS011;18781;51.550;5.418;2023-04-24T07:44:53;20.55;;;9.10;;
32295;SDS011;18781;51.550;5.418;2023-04-24T07:47:18;17.83;;;8.68;;
32295;SDS011;18781;51.550;5.418;2023-04-24T07:49:44;17.63;;;7.72;;
32295;SDS011;18781;51.550;5.418;2023-04-24T07:52:10;19.73;;;8.30;;
32295;SDS011;18781;51.550;5.418;2023-04-24T07:54:35;21.23;;;8.52;;
32295;SDS011;18781;51.550;5.418;2023-04-24T07:57:02;24.58;;;8.30;;
32295;SDS011;18781;51.550;5.418;2023-04-24T07:59:28;23.55;;;7.70;;
32295;SDS011;18781;51.550;5.418;2023-04-24T08:01:54;19.98;;;7.10;;
32295;SDS011;18781;51.550;5.418;2023-04-24T08:04:19;23.92;;;6.75;;
32295;SDS011;18781;51.550;5.418;2023-04-24T08:06:46;21.50;;;6.70;;
32295;SDS011;18781;51.550;5.418;2023-04-24T08:09:12;21.60;;;7.05;;
32295;SDS011;18781;51.550;5.418;2023-04-24T08:11:38;21.02;;;7.07;;
32295;SDS011;18781;51.550;5.418;2023-04-24T08:14:04;24.80;;;7.85;;
32295;SDS011;18781;51.550;5.418;2023-04-24T08:16:29;25.05;;;7.13;;
32295;SDS011;18781;51.550;5.418;2023-04-24T08:18:55;23.30;;;6.97;;
32295;SDS011;18781;51.550;5.418;2023-04-24T08:21:20;21.67;;;7.13;;
32295;SDS011;18781;51.550;5.418;2023-04-24T08:23:46;19.02;;;7.18;;
32295;SDS011;18781;51.550;5.418;2023-04-24T08:26:12;29.35;;;7.50;;
32295;SDS011;18781;51.550;5.418;2023-04-24T08:28:38;20.02;;;6.40;;
32295;SDS011;18781;51.550;5.418;2023-04-24T08:31:04;22.05;;;7.60;;
32295;SDS011;18781;51.550;5.418;2023-04-24T08:33:30;24.00;;;7.05;;
32295;SDS011;18781;51.550;5.418;2023-04-24T08:35:59;26.30;;;8.10;;
32295;SDS011;18781;51.550;5.418;2023-04-24T08:38:27;25.20;;;6.90;;
32295;SDS011;18781;51.550;5.418;2023-04-24T08:40:52;28.35;;;6.93;;
32295;SDS011;18781;51.550;5.418;2023-04-24T08:43:18;24.13;;;7.38;;
32295;SDS011;18781;51.550;5.418;2023-04-24T08:45:46;28.27;;;7.03;;
32295;SDS011;18781;51.550;5.418;2023-04-24T08:48:12;28.35;;;6.32;;
32295;SDS011;18781;51.550;5.418;2023-04-24T08:50:38;24.15;;;6.20;;
32295;SDS011;18781;51.550;5.418;2023-04-24T08:53:07;28.27;;;6.97;;
32295;SDS011;18781;51.550;5.418;2023-04-24T08:55:33;23.40;;;5.57;;
32295;SDS011;18781;51.550;5.418;2023-04-24T08:58:00;26.55;;;6.07;;
32295;SDS011;18781;51.550;5.418;2023-04-24T09:00:27;28.58;;;5.85;;
32295;SDS011;18781;51.550;5.418;2023-04-24T09:02:53;25.17;;;5.32;;
32295;SDS011;18781;51.550;5.418;2023-04-24T09:05:19;26.23;;;4.97;;
32295;SDS011;18781;51.550;5.418;2023-04-24T09:07:49;21.88;;;4.43;;
32295;SDS011;18781;51.550;5.418;2023-04-24T09:10:19;21.60;;;4.82;;
32295;SDS011;18781;51.550;5.418;2023-04-24T09:12:46;22.67;;;4.32;;
32295;SDS011;18781;51.550;5.418;2023-04-24T09:15:12;20.75;;;4.00;;
32295;SDS011;18781;51.550;5.418;2023-04-24T09:17:38;18.92;;;4.25;;
32295;SDS011;18781;51.550;5.418;2023-04-24T09:20:04;19.83;;;3.78;;
32295;SDS011;18781;51.550;5.418;2023-04-24T09:22:30;19.23;;;4.00;;
32295;SDS011;18781;51.550;5.418;2023-04-24T09:24:59;20.30;;;4.78;;
32295;SDS011;18781;51.550;5.418;2023-04-24T09:27:30;18.10;;;3.53;;
32295;SDS011;18781;51.550;5.418;2023-04-24T09:29:56;24.40;;;4.03;;
32295;SDS011;18781;51.550;5.418;2023-04-24T09:32:23;23.98;;;4.28;;
32295;SDS011;18781;51.550;5.418;2023-04-24T09:35:07;19.23;;;4.85;;
32295;SDS011;18781;51.550;5.418;2023-04-24T09:37:36;14.35;;;4.40;;
32295;SDS011;18781;51.550;5.418;2023-04-24T09:42:46;14.20;;;4.28;;
32295;SDS011;18781;51.550;5.418;2023-04-24T09:45:17;20.92;;;4.57;;
32295;SDS011;18781;51.550;5.418;2023-04-24T09:47:43;18.38;;;3.97;;
32295;SDS011;18781;51.550;5.418;2023-04-24T09:50:18;22.15;;;4.50;;
32295;SDS011;18781;51.550;5.418;2023-04-24T09:52:44;16.08;;;4.03;;
32295;SDS011;18781;51.550;5.418;2023-04-24T09:55:21;16.73;;;4.00;;
32295;SDS011;18781;51.550;5.418;2023-04-24T09:57:47;26.83;;;4.13;;
32295;SDS011;18781;51.550;5.418;2023-04-24T10:00:17;14.88;;;3.60;;
32295;SDS011;18781;51.550;5.418;2023-04-24T10:05:09;11.30;;;2.45;;
32295;SDS011;18781;51.550;5.418;2023-04-24T10:07:37;14.45;;;2.70;;
32295;SDS011;18781;51.550;5.418;2023-04-24T10:10:03;12.50;;;2.80;;
32295;SDS011;18781;51.550;5.418;2023-04-24T10:12:29;17.23;;;2.92;;
32295;SDS011;18781;51.550;5.418;2023-04-24T10:14:55;9.73;;;2.85;;
32295;SDS011;18781;51.550;5.418;2023-04-24T10:17:22;13.68;;;2.55;;
32295;SDS011;18781;51.550;5.418;2023-04-24T10:19:49;9.50;;;2.60;;
32295;SDS011;18781;51.550;5.418;2023-04-24T10:22:16;10.45;;;2.70;;
32295;SDS011;18781;51.550;5.418;2023-04-24T10:24:43;14.40;;;2.85;;
32295;SDS011;18781;51.550;5.418;2023-04-24T10:27:10;11.40;;;2.00;;
32295;SDS011;18781;51.550;5.418;2023-04-24T10:29:37;9.48;;;2.10;;
32295;SDS011;18781;51.550;5.418;2023-04-24T10:32:06;4.78;;;1.52;;
32295;SDS011;18781;51.550;5.418;2023-04-24T10:34:32;5.70;;;1.45;;
32295;SDS011;18781;51.550;5.418;2023-04-24T10:36:57;6.82;;;1.52;;
32295;SDS011;18781;51.550;5.418;2023-04-24T10:39:23;10.25;;;2.03;;
32295;SDS011;18781;51.550;5.418;2023-04-24T10:41:49;7.53;;;1.40;;
32295;SDS011;18781;51.550;5.418;2023-04-24T10:44:15;9.05;;;1.30;;
32295;SDS011;18781;51.550;5.418;2023-04-24T10:46:46;9.60;;;1.50;;
32295;SDS011;18781;51.550;5.418;2023-04-24T10:49:17;8.50;;;1.48;;
32295;SDS011;18781;51.550;5.418;2023-04-24T10:51:54;11.65;;;1.60;;
32295;SDS011;18781;51.550;5.418;2023-04-24T10:54:29;6.55;;;1.33;;
32295;SDS011;18781;51.550;5.418;2023-04-24T10:59:43;5.85;;;1.33;;
32295;SDS011;18781;51.550;5.418;2023-04-24T11:02:09;9.90;;;1.50;;
32295;SDS011;18781;51.550;5.418;2023-04-24T11:04:35;8.57;;;1.70;;
32295;SDS011;18781;51.550;5.418;2023-04-24T11:07:02;12.07;;;1.48;;
32295;SDS011;18781;51.550;5.418;2023-04-24T11:09:30;8.27;;;2.13;;
32295;SDS011;18781;51.550;5.418;2023-04-24T11:12:29;7.35;;;1.75;;
32295;SDS011;18781;51.550;5.418;2023-04-24T11:20:22;8.43;;;1.55;;
32295;SDS011;18781;51.550;5.418;2023-04-24T11:22:48;6.45;;;1.40;;
32295;SDS011;18781;51.550;5.418;2023-04-24T11:25:18;7.20;;;1.63;;
32295;SDS011;18781;51.550;5.418;2023-04-24T11:27:44;5.72;;;1.23;;
32295;SDS011;18781;51.550;5.418;2023-04-24T11:30:17;6.25;;;1.00;;
32295;SDS011;18781;51.550;5.418;2023-04-24T11:32:47;6.25;;;1.85;;
32295;SDS011;18781;51.550;5.418;2023-04-24T11:35:18;7.05;;;1.35;;
32295;SDS011;18781;51.550;5.418;2023-04-24T11:37:49;6.78;;;1.80;;
32295;SDS011;18781;51.550;5.418;2023-04-24T11:40:17;6.53;;;1.40;;
32295;SDS011;18781;51.550;5.418;2023-04-24T11:42:48;8.20;;;1.30;;
32295;SDS011;18781;51.550;5.418;2023-04-24T11:45:17;5.20;;;1.48;;
32295;SDS011;18781;51.550;5.418;2023-04-24T11:47:47;10.35;;;1.65;;
32295;SDS011;18781;51.550;5.418;2023-04-24T11:50:16;11.80;;;1.50;;
32295;SDS011;18781;51.550;5.418;2023-04-24T11:52:44;5.43;;;1.55;;
32295;SDS011;18781;51.550;5.418;2023-04-24T11:57:42;6.65;;;2.03;;
32295;SDS011;18781;51.550;5.418;2023-04-24T12:00:18;10.65;;;1.40;;
32295;SDS011;18781;51.550;5.418;2023-04-24T12:02:45;8.32;;;1.60;;
32295;SDS011;18781;51.550;5.418;2023-04-24T12:05:21;14.82;;;1.30;;
32295;SDS011;18781;51.550;5.418;2023-04-24T12:07:48;13.93;;;1.75;;
32295;SDS011;18781;51.550;5.418;2023-04-24T12:10:13;6.30;;;1.38;;
32295;SDS011;18781;51.550;5.418;2023-04-24T12:12:39;13.10;;;1.85;;
32295;SDS011;18781;51.550;5.418;2023-04-24T12:15:08;3.97;;;1.55;;
32295;SDS011;18781;51.550;5.418;2023-04-24T12:17:35;8.15;;;2.03;;
32295;SDS011;18781;51.550;5.418;2023-04-24T12:20:05;8.80;;;1.50;;
32295;SDS011;18781;51.550;5.418;2023-04-24T12:25:33;5.10;;;1.27;;
32295;SDS011;18781;51.550;5.418;2023-04-24T12:30:31;6.03;;;1.30;;
32295;SDS011;18781;51.550;5.418;2023-04-24T12:32:58;5.68;;;1.33;;
32295;SDS011;18781;51.550;5.418;2023-04-24T12:35:26;8.32;;;1.75;;
32295;SDS011;18781;51.550;5.418;2023-04-24T12:37:53;3.77;;;1.20;;
32295;SDS011;18781;51.550;5.418;2023-04-24T12:40:20;7.15;;;1.20;;
32295;SDS011;18781;51.550;5.418;2023-04-24T12:42:48;6.80;;;1.40;;
32295;SDS011;18781;51.550;5.418;2023-04-24T12:45:14;11.32;;;1.50;;
32295;SDS011;18781;51.550;5.418;2023-04-24T12:47:41;5.40;;;1.27;;
32295;SDS011;18781;51.550;5.418;2023-04-24T12:50:08;7.00;;;1.30;;
32295;SDS011;18781;51.550;5.418;2023-04-24T12:52:35;4.60;;;1.30;;
32295;SDS011;18781;51.550;5.418;2023-04-24T12:55:01;6.70;;;1.73;;
32295;SDS011;18781;51.550;5.418;2023-04-24T12:57:28;6.10;;;1.20;;
32295;SDS011;18781;51.550;5.418;2023-04-24T12:59:55;5.35;;;1.33;;
32295;SDS011;18781;51.550;5.418;2023-04-24T13:02:22;2.85;;;1.20;;
32295;SDS011;18781;51.550;5.418;2023-04-24T13:04:48;6.40;;;1.30;;
32295;SDS011;18781;51.550;5.418;2023-04-24T13:07:15;5.00;;;1.30;;
32295;SDS011;18781;51.550;5.418;2023-04-24T13:09:41;5.93;;;1.20;;
32295;SDS011;18781;51.550;5.418;2023-04-24T13:12:07;6.60;;;1.23;;
32295;SDS011;18781;51.550;5.418;2023-04-24T13:14:33;7.18;;;1.50;;
32295;SDS011;18781;51.550;5.418;2023-04-24T13:17:00;10.45;;;1.58;;
32295;SDS011;18781;51.550;5.418;2023-04-24T13:19:25;2.33;;;1.08;;
32295;SDS011;18781;51.550;5.418;2023-04-24T13:21:52;3.58;;;1.25;;
32295;SDS011;18781;51.550;5.418;2023-04-24T13:24:19;7.30;;;1.85;;
32295;SDS011;18781;51.550;5.418;2023-04-24T13:26:45;4.72;;;1.60;;
32295;SDS011;18781;51.550;5.418;2023-04-24T13:29:10;7.03;;;1.48;;
32295;SDS011;18781;51.550;5.418;2023-04-24T13:31:36;4.45;;;1.50;;
32295;SDS011;18781;51.550;5.418;2023-04-24T13:34:02;4.10;;;1.45;;
32295;SDS011;18781;51.550;5.418;2023-04-24T13:36:28;3.63;;;1.30;;
32295;SDS011;18781;51.550;5.418;2023-04-24T13:38:55;3.95;;;1.33;;
32295;SDS011;18781;51.550;5.418;2023-04-24T13:41:20;3.15;;;1.42;;
32295;SDS011;18781;51.550;5.418;2023-04-24T13:43:46;10.48;;;1.70;;
32295;SDS011;18781;51.550;5.418;2023-04-24T13:46:12;5.72;;;1.40;;
32295;SDS011;18781;51.550;5.418;2023-04-24T13:48:37;4.55;;;1.38;;
32295;SDS011;18781;51.550;5.418;2023-04-24T13:51:03;6.30;;;1.45;;
32295;SDS011;18781;51.550;5.418;2023-04-24T13:53:29;5.38;;;2.00;;
32295;SDS011;18781;51.550;5.418;2023-04-24T13:55:54;5.65;;;2.00;;
32295;SDS011;18781;51.550;5.418;2023-04-24T13:58:20;11.38;;;1.80;;
32295;SDS011;18781;51.550;5.418;2023-04-24T14:00:45;7.18;;;1.63;;
32295;SDS011;18781;51.550;5.418;2023-04-24T14:03:11;5.63;;;1.50;;
32295;SDS011;18781;51.550;5.418;2023-04-24T14:05:36;5.55;;;1.58;;
32295;SDS011;18781;51.550;5.418;2023-04-24T14:08:02;4.60;;;1.20;;
32295;SDS011;18781;51.550;5.418;2023-04-24T14:10:28;5.57;;;1.50;;
32295;SDS011;18781;51.550;5.418;2023-04-24T14:12:53;2.67;;;1.05;;
32295;SDS011;18781;51.550;5.418;2023-04-24T14:15:19;3.20;;;1.40;;
32295;SDS011;18781;51.550;5.418;2023-04-24T14:17:45;5.57;;;1.50;;
32295;SDS011;18781;51.550;5.418;2023-04-24T14:20:11;4.95;;;1.52;;
32295;SDS011;18781;51.550;5.418;2023-04-24T14:22:37;4.90;;;1.30;;
32295;SDS011;18781;51.550;5.418;2023-04-24T14:25:03;4.85;;;1.70;;
32295;SDS011;18781;51.550;5.418;2023-04-24T14:27:30;4.68;;;1.50;;
32295;SDS011;18781;51.550;5.418;2023-04-24T14:29:57;5.57;;;1.73;;
32295;SDS011;18781;51.550;5.418;2023-04-24T14:32:22;6.03;;;2.05;;
32295;SDS011;18781;51.550;5.418;2023-04-24T14:34:48;5.68;;;1.50;;
32295;SDS011;18781;51.550;5.418;2023-04-24T14:37:14;6.00;;;1.80;;
32295;SDS011;18781;51.550;5.418;2023-04-24T14:39:40;7.07;;;1.80;;
32295;SDS011;18781;51.550;5.418;2023-04-24T14:42:05;9.63;;;2.28;;
32295;SDS011;18781;51.550;5.418;2023-04-24T14:44:31;5.80;;;1.75;;
32295;SDS011;18781;51.550;5.418;2023-04-24T14:46:57;6.82;;;2.00;;
32295;SDS011;18781;51.550;5.418;2023-04-24T14:49:23;4.43;;;1.65;;